createdAt,value
2023-04-01T00:01:48.479Z,8.43
2023-04-01T00:04:17.146Z,5.93
2023-04-01T00:06:43.949Z,7.25
2023-04-01T00:09:11.181Z,10.98
2023-04-01T00:11:38.000Z,10.15
2023-04-01T00:14:05.128Z,7.30
2023-04-01T00:16:32.069Z,6.45
2023-04-01T00:18:59.225Z,8.52
2023-04-01T00:21:26.185Z,8.55
2023-04-01T00:23:53.027Z,10.00
2023-04-01T00:26:22.717Z,7.80
2023-04-01T00:28:50.754Z,9.27
2023-04-01T00:31:18.503Z,8.73
2023-04-01T00:33:45.676Z,9.15
2023-04-01T00:36:15.794Z,9.73
2023-04-01T00:38:44.292Z,8.07
2023-04-01T00:41:15.336Z,8.57
2023-04-01T00:43:49.024Z,9.70
2023-04-01T00:46:15.943Z,16.58
2023-04-01T00:48:48.693Z,12.60
2023-04-01T00:51:21.289Z,8.20
2023-04-01T00:53:51.866Z,10.05
2023-04-01T00:56:23.701Z,11.90
2023-04-01T00:58:58.453Z,12.88
2023-04-01T01:01:26.709Z,12.23
2023-04-01T01:03:54.081Z,10.13
2023-04-01T01:06:47.921Z,11.77
2023-04-01T01:09:33.708Z,9.65
2023-04-01T01:12:31.269Z,10.80
2023-04-01T01:15:10.649Z,10.43
2023-04-01T01:17:55.924Z,14.25
2023-04-01T01:20:43.518Z,9.75
2023-04-01T01:23:43.930Z,10.63
2023-04-01T01:26:36.343Z,9.88
2023-04-01T01:29:43.710Z,8.23
2023-04-01T01:32:37.904Z,8.27
2023-04-01T01:35:43.786Z,10.82
2023-04-01T01:38:15.724Z,9.73
2023-04-01T01:40:45.506Z,13.48
2023-04-01T01:43:17.970Z,10.10
2023-04-01T01:45:49.667Z,11.60
2023-04-01T01:48:18.427Z,14.40
2023-04-01T01:50:47.236Z,9.25
2023-04-01T01:53:14.481Z,9.55
2023-04-01T01:55:44.074Z,15.30
2023-04-01T01:58:28.873Z,8.93
2023-04-01T02:01:02.106Z,8.90
2023-04-01T02:03:33.841Z,7.63
2023-04-01T02:06:02.881Z,9.75
2023-04-01T02:08:34.432Z,10.05
2023-04-01T02:11:05.163Z,7.85
2023-04-01T02:13:31.927Z,9.52
2023-04-01T02:16:03.243Z,9.63
2023-04-01T02:18:32.433Z,14.63
2023-04-01T02:21:01.689Z,8.07
2023-04-01T02:23:29.665Z,6.97
2023-04-01T02:25:56.963Z,7.53
2023-04-01T02:28:25.022Z,6.88
2023-04-01T02:30:52.608Z,7.85
2023-04-01T02:33:20.811Z,5.70
2023-04-01T02:35:48.650Z,5.43
2023-04-01T02:38:17.271Z,7.93
2023-04-01T02:40:50.663Z,5.50
2023-04-01T02:43:17.616Z,5.55
2023-04-01T02:45:44.991Z,6.70
2023-04-01T02:48:12.116Z,8.10
2023-04-01T02:50:38.814Z,7.22
2023-04-01T02:53:07.245Z,4.60
2023-04-01T02:55:35.637Z,4.50
2023-04-01T02:58:03.233Z,9.25
2023-04-01T03:00:30.373Z,6.93
2023-04-01T03:02:58.292Z,4.65
2023-04-01T03:05:25.963Z,4.10
2023-04-01T03:07:52.728Z,4.68
2023-04-01T03:10:19.460Z,5.05
2023-04-01T03:12:46.485Z,4.43
2023-04-01T03:15:15.621Z,4.95
2023-04-01T03:17:43.839Z,3.90
2023-04-01T03:20:12.075Z,5.32
2023-04-01T03:22:42.678Z,9.15
2023-04-01T03:25:11.919Z,4.40
2023-04-01T03:27:38.837Z,3.97
2023-04-01T03:30:07.446Z,5.82
2023-04-01T03:32:34.290Z,3.75
2023-04-01T03:35:01.365Z,3.65
2023-04-01T03:37:28.968Z,3.10
2023-04-01T03:39:55.911Z,7.20
2023-04-01T03:42:22.744Z,4.65
2023-04-01T03:44:49.821Z,4.35
2023-04-01T03:47:16.771Z,5.60
2023-04-01T03:49:43.451Z,5.50
2023-04-01T03:52:12.018Z,4.97
2023-04-01T03:54:38.742Z,5.32
2023-04-01T03:57:05.805Z,6.18
2023-04-01T03:59:33.126Z,8.50
2023-04-01T04:01:59.859Z,14.23
2023-04-01T04:04:27.753Z,15.80
2023-04-01T04:06:54.998Z,17.02
2023-04-01T04:09:21.756Z,15.82
2023-04-01T04:11:50.075Z,23.70
2023-04-01T04:14:17.101Z,12.63
2023-04-01T04:16:43.856Z,14.57
2023-04-01T04:19:11.461Z,16.08
2023-04-01T04:21:38.210Z,13.50
2023-04-01T04:24:05.264Z,10.15
2023-04-01T04:26:32.328Z,10.20
2023-04-01T04:28:59.338Z,14.57
2023-04-01T04:31:27.699Z,8.15
2023-04-01T04:33:55.017Z,6.85
2023-04-01T04:36:22.513Z,9.20
2023-04-01T04:38:49.989Z,10.05
2023-04-01T04:41:18.838Z,7.47
2023-04-01T04:43:56.786Z,9.48
2023-04-01T04:46:24.663Z,7.70
2023-04-01T04:48:51.699Z,6.28
2023-04-01T04:51:20.589Z,6.82
2023-04-01T04:53:48.556Z,6.95
2023-04-01T04:56:21.289Z,7.85
2023-04-01T04:58:48.416Z,5.00
2023-04-01T05:01:17.181Z,6.43
2023-04-01T05:03:44.269Z,4.80
2023-04-01T05:06:13.651Z,4.38
2023-04-01T05:08:41.762Z,4.93
2023-04-01T05:11:13.868Z,4.88
2023-04-01T05:13:41.593Z,4.13
2023-04-01T05:16:13.171Z,4.90
2023-04-01T05:18:40.719Z,6.18
2023-04-01T05:21:10.107Z,4.82
2023-04-01T05:23:37.600Z,6.72
2023-04-01T05:26:10.286Z,5.03
2023-04-01T05:28:37.384Z,4.65
2023-04-01T05:31:04.947Z,5.93
2023-04-01T05:33:32.428Z,5.20
2023-04-01T05:36:07.908Z,4.57
2023-04-01T05:38:35.126Z,5.07
2023-04-01T05:41:03.259Z,6.22
2023-04-01T05:43:31.217Z,4.28
2023-04-01T05:45:59.128Z,4.30
2023-04-01T05:48:25.918Z,5.82
2023-04-01T05:50:52.996Z,4.95
2023-04-01T05:53:20.845Z,5.10
2023-04-01T05:55:47.579Z,5.82
2023-04-01T05:58:14.274Z,4.60
2023-04-01T06:00:41.160Z,4.85
2023-04-01T06:03:08.004Z,4.43
2023-04-01T06:05:45.421Z,6.85
2023-04-01T06:08:20.337Z,4.32
2023-04-01T06:11:20.672Z,5.28
2023-04-01T06:14:08.760Z,4.40
2023-04-01T06:17:02.032Z,4.10
2023-04-01T06:19:51.561Z,4.97
2023-04-01T06:22:44.620Z,5.32
2023-04-01T06:25:33.125Z,5.20
2023-04-01T06:28:08.995Z,6.45
2023-04-01T06:30:44.417Z,7.30
2023-04-01T06:33:47.950Z,5.43
2023-04-01T06:36:33.112Z,6.82
2023-04-01T06:39:27.725Z,7.90
2023-04-01T06:42:26.968Z,5.45
2023-04-01T06:45:21.192Z,5.82
2023-04-01T06:48:32.892Z,6.15
2023-04-01T06:51:23.116Z,5.10
2023-04-01T06:54:21.674Z,4.78
2023-04-01T06:56:56.955Z,5.28
2023-04-01T06:59:28.381Z,7.00
2023-04-01T07:02:11.326Z,5.38
2023-04-01T07:04:45.590Z,5.25
2023-04-01T07:07:25.448Z,3.88
2023-04-01T07:10:00.095Z,4.28
2023-04-01T07:12:37.898Z,4.30
2023-04-01T07:15:29.737Z,9.65
2023-04-01T07:18:18.239Z,5.03
2023-04-01T07:20:47.183Z,4.18
2023-04-01T07:23:25.988Z,4.63
2023-04-01T07:25:59.686Z,6.45
2023-04-01T07:28:36.190Z,4.80
2023-04-01T07:31:11.143Z,3.53
2023-04-01T07:34:00.351Z,5.10
2023-04-01T07:36:45.566Z,6.30
2023-04-01T07:39:44.525Z,4.75
2023-04-01T07:42:25.259Z,6.03
2023-04-01T07:45:07.579Z,4.57
2023-04-01T07:47:56.835Z,10.88
2023-04-01T07:50:36.168Z,3.95
2023-04-01T07:53:45.523Z,7.72
2023-04-01T07:56:31.407Z,3.75
2023-04-01T07:59:03.471Z,3.10
2023-04-01T08:01:52.066Z,5.45
2023-04-01T08:04:38.009Z,4.60
2023-04-01T08:07:04.746Z,4.93
2023-04-01T08:09:49.008Z,6.82
2023-04-01T08:12:21.798Z,6.60
2023-04-01T08:15:07.288Z,4.78
2023-04-01T08:17:46.992Z,5.63
2023-04-01T08:20:38.393Z,4.75
2023-04-01T08:23:11.374Z,4.75
2023-04-01T08:25:44.302Z,5.40
2023-04-01T08:28:40.321Z,7.82
2023-04-01T08:31:19.683Z,3.25
2023-04-01T08:33:48.765Z,6.28
2023-04-01T08:36:21.600Z,5.75
2023-04-01T08:38:52.876Z,5.65
2023-04-01T08:41:48.925Z,3.65
2023-04-01T08:44:51.466Z,5.35
2023-04-01T08:47:35.803Z,4.07
2023-04-01T08:50:40.451Z,3.90
2023-04-01T08:53:31.222Z,6.50
2023-04-01T08:56:22.033Z,4.60
2023-04-01T08:59:07.648Z,5.10
2023-04-01T09:01:46.732Z,5.05
2023-04-01T09:04:35.338Z,5.50
2023-04-01T09:07:17.109Z,4.78
2023-04-01T09:10:09.378Z,4.13
2023-04-01T09:12:53.352Z,5.07
2023-04-01T09:15:54.244Z,4.65
2023-04-01T09:18:57.771Z,3.08
2023-04-01T09:21:53.501Z,4.22
2023-04-01T09:24:57.860Z,5.20
2023-04-01T09:27:31.924Z,6.60
2023-04-01T09:30:15.306Z,4.35
2023-04-01T09:33:34.423Z,5.28
2023-04-01T09:36:24.208Z,8.07
2023-04-01T09:39:27.997Z,3.83
2023-04-01T09:42:43.079Z,4.00
2023-04-01T09:45:36.378Z,3.67
2023-04-01T09:48:03.488Z,4.85
2023-04-01T09:50:51.621Z,4.30
2023-04-01T09:53:51.118Z,5.10
2023-04-01T09:56:41.004Z,5.40
2023-04-01T09:59:34.520Z,3.80
2023-04-01T10:02:22.848Z,3.83
2023-04-01T10:05:11.304Z,4.50
2023-04-01T10:07:52.523Z,3.20
2023-04-01T10:10:34.182Z,6.17
2023-04-01T10:13:28.622Z,3.97
2023-04-01T10:16:01.640Z,2.80
2023-04-01T10:18:37.190Z,2.93
2023-04-01T10:21:18.743Z,2.53
2023-04-01T10:24:09.618Z,2.83
2023-04-01T10:26:55.086Z,2.17
2023-04-01T10:29:34.658Z,2.60
2023-04-01T10:32:13.655Z,4.80
2023-04-01T10:34:56.151Z,4.20
2023-04-01T10:37:28.854Z,2.70
2023-04-01T10:40:02.201Z,3.47
2023-04-01T10:42:43.167Z,3.57
2023-04-01T10:45:22.098Z,3.23
2023-04-01T10:48:10.812Z,3.53
2023-04-01T10:50:40.722Z,2.53
2023-04-01T10:53:40.518Z,1.00
2023-04-01T10:56:13.485Z,3.25
2023-04-01T10:58:58.861Z,8.70
2023-04-01T11:01:33.938Z,2.08
2023-04-01T11:04:19.146Z,2.35
2023-04-01T11:07:27.713Z,1.70
2023-04-01T11:09:57.195Z,1.60
2023-04-01T11:12:33.642Z,2.72
2023-04-01T11:15:41.975Z,2.28
2023-04-01T11:18:27.418Z,2.38
2023-04-01T11:20:57.479Z,2.83
2023-04-01T11:23:43.997Z,2.67
2023-04-01T11:26:12.624Z,2.30
2023-04-01T11:29:13.407Z,2.10
2023-04-01T11:31:55.340Z,3.25
2023-04-01T11:34:33.774Z,2.53
2023-04-01T11:37:29.036Z,2.42
2023-04-01T11:40:34.504Z,2.72
2023-04-01T11:43:32.287Z,2.72
2023-04-01T11:46:09.929Z,3.45
2023-04-01T11:49:08.960Z,1.38
2023-04-01T11:51:54.540Z,2.10
2023-04-01T11:54:39.494Z,1.65
2023-04-01T11:57:24.633Z,2.95
2023-04-01T12:00:15.832Z,2.95
2023-04-01T12:03:20.263Z,3.25
2023-04-01T12:05:59.394Z,2.55
2023-04-01T12:08:30.478Z,1.35
2023-04-01T12:11:16.724Z,3.50
2023-04-01T12:13:49.662Z,1.42
2023-04-01T12:16:26.143Z,1.85
2023-04-01T12:19:09.321Z,1.92
2023-04-01T12:21:53.600Z,2.10
2023-04-01T12:24:55.759Z,2.95
2023-04-01T12:27:40.069Z,1.80
2023-04-01T12:30:36.591Z,3.85
2023-04-01T12:33:43.053Z,1.67
2023-04-01T12:36:32.502Z,2.17
2023-04-01T12:39:32.575Z,1.90
2023-04-01T12:42:21.538Z,1.95
2023-04-01T12:45:06.970Z,2.15
2023-04-01T12:47:42.742Z,1.50
2023-04-01T12:50:26.221Z,1.52
2023-04-01T12:53:37.224Z,1.60
2023-04-01T12:56:09.134Z,2.88
2023-04-01T12:59:01.365Z,2.15
2023-04-01T13:01:56.855Z,1.80
2023-04-01T13:04:46.257Z,7.82
2023-04-01T13:07:27.877Z,3.65
2023-04-01T13:10:33.932Z,3.15
2023-04-01T13:13:25.129Z,3.28
2023-04-01T13:16:02.569Z,2.45
2023-04-01T13:18:44.929Z,4.80
2023-04-01T13:21:45.054Z,4.07
2023-04-01T13:24:40.716Z,2.67
2023-04-01T13:27:15.549Z,3.42
2023-04-01T13:30:03.862Z,8.82
2023-04-01T13:32:46.669Z,7.05
2023-04-01T13:35:37.962Z,6.18
2023-04-01T13:38:38.882Z,7.13
2023-04-01T13:41:39.400Z,6.13
2023-04-01T13:44:19.087Z,4.30
2023-04-01T13:47:13.777Z,9.13
2023-04-01T13:49:49.753Z,3.13
2023-04-01T13:52:32.012Z,2.70
2023-04-01T13:55:37.000Z,2.50
2023-04-01T13:58:22.341Z,2.05
2023-04-01T14:01:11.759Z,2.22
2023-04-01T14:04:09.276Z,1.70
2023-04-01T14:07:05.470Z,1.75
2023-04-01T14:09:59.810Z,2.65
2023-04-01T14:12:40.403Z,1.90
2023-04-01T14:15:22.636Z,1.23
2023-04-01T14:17:55.334Z,2.10
2023-04-01T14:20:28.849Z,1.70
2023-04-01T14:23:08.895Z,3.75
2023-04-01T14:25:54.189Z,1.92
2023-04-01T14:28:34.970Z,3.38
2023-04-01T14:31:01.657Z,3.58
2023-04-01T14:33:58.537Z,2.45
2023-04-01T14:36:50.171Z,9.30
2023-04-01T14:39:49.654Z,3.33
2023-04-01T14:42:28.919Z,4.40
2023-04-01T14:45:28.267Z,3.60
2023-04-01T14:48:16.656Z,4.85
2023-04-01T14:50:47.626Z,3.95
2023-04-01T14:53:27.082Z,4.57
2023-04-01T14:55:59.953Z,4.38
2023-04-01T14:58:45.351Z,5.28
2023-04-01T15:01:33.266Z,4.20
2023-04-01T15:04:31.462Z,4.38
2023-04-01T15:07:35.515Z,5.20
2023-04-01T15:10:26.310Z,8.25
2023-04-01T15:13:11.108Z,6.53
2023-04-01T15:15:57.763Z,4.35
2023-04-01T15:18:58.862Z,5.00
2023-04-01T15:21:45.771Z,6.00
2023-04-01T15:24:25.992Z,4.30
2023-04-01T15:27:09.214Z,6.82
2023-04-01T15:29:44.789Z,2.63
2023-04-01T15:32:19.339Z,3.15
2023-04-01T15:34:58.368Z,3.50
2023-04-01T15:37:49.725Z,2.85
2023-04-01T15:40:25.067Z,3.80
2023-04-01T15:43:07.536Z,3.10
2023-04-01T15:46:15.684Z,6.97
2023-04-01T15:48:48.378Z,5.13
2023-04-01T15:51:24.653Z,5.70
2023-04-01T15:54:14.290Z,6.38
2023-04-01T15:56:57.520Z,6.15
2023-04-01T15:59:33.007Z,5.50
2023-04-01T16:02:14.692Z,7.10
2023-04-01T16:04:54.087Z,7.15
2023-04-01T16:07:56.088Z,8.18
2023-04-01T16:10:50.347Z,6.40
2023-04-01T16:13:55.939Z,8.07
2023-04-01T16:16:36.110Z,5.60
2023-04-01T16:19:09.443Z,6.55
2023-04-01T16:21:51.606Z,6.65
2023-04-01T16:24:41.065Z,6.15
2023-04-01T16:27:25.791Z,5.90
2023-04-01T16:30:18.944Z,6.97
2023-04-01T16:33:25.969Z,6.93
2023-04-01T16:36:11.842Z,7.60
2023-04-01T16:38:58.310Z,7.85
2023-04-01T16:41:47.995Z,6.95
2023-04-01T16:44:27.399Z,6.38
2023-04-01T16:46:58.420Z,8.85
2023-04-01T16:49:37.427Z,7.90
2023-04-01T16:52:04.497Z,8.10
2023-04-01T16:54:52.519Z,13.38
2023-04-01T16:57:38.325Z,8.60
2023-04-01T17:00:24.126Z,9.73
2023-04-01T17:02:55.838Z,10.38
2023-04-01T17:05:56.300Z,10.23
2023-04-01T17:08:33.273Z,12.63
2023-04-01T17:11:31.650Z,9.18
2023-04-01T17:14:25.978Z,14.35
2023-04-01T17:17:11.225Z,9.82
2023-04-01T17:20:10.190Z,10.43
2023-04-01T17:23:02.160Z,9.18
2023-04-01T17:25:50.450Z,11.95
2023-04-01T17:28:42.189Z,12.32
2023-04-01T17:31:22.662Z,13.65
2023-04-01T17:34:19.799Z,12.20
2023-04-01T17:37:10.607Z,14.43
2023-04-01T17:40:22.345Z,10.85
2023-04-01T17:42:58.100Z,14.40
2023-04-01T17:45:27.879Z,14.18
2023-04-01T17:48:12.185Z,11.07
2023-04-01T17:50:48.077Z,15.25
2023-04-01T17:53:34.840Z,12.50
2023-04-01T17:56:15.129Z,16.98
2023-04-01T17:59:09.006Z,14.38
2023-04-01T18:02:16.904Z,13.88
2023-04-01T18:05:18.290Z,15.23
2023-04-01T18:08:10.037Z,14.00
2023-04-01T18:11:09.919Z,18.42
2023-04-01T18:13:43.982Z,26.00
2023-04-01T18:16:43.280Z,25.80
2023-04-01T18:19:32.073Z,21.30
2023-04-01T18:22:09.443Z,25.92
2023-04-01T18:24:45.104Z,29.42
2023-04-01T18:27:31.440Z,24.80
2023-04-01T18:30:15.185Z,25.98
2023-04-01T18:33:05.824Z,27.83
2023-04-01T18:35:57.134Z,26.02
2023-04-01T18:38:35.831Z,33.40
2023-04-01T18:41:28.048Z,30.98
2023-04-01T18:44:13.756Z,26.83
2023-04-01T18:46:59.490Z,24.27
2023-04-01T18:49:42.496Z,25.08
2023-04-01T18:52:32.510Z,27.40
2023-04-01T18:55:02.340Z,26.40
2023-04-01T18:58:00.919Z,27.65
2023-04-01T19:00:36.135Z,33.17
2023-04-01T19:03:26.320Z,33.25
2023-04-01T19:05:55.566Z,34.28
2023-04-01T19:08:34.847Z,31.25
2023-04-01T19:11:22.982Z,28.25
2023-04-01T19:14:19.823Z,28.10
2023-04-01T19:17:04.381Z,31.75
2023-04-01T19:20:02.786Z,29.20
2023-04-01T19:22:42.185Z,31.92
2023-04-01T19:25:38.104Z,28.27
2023-04-01T19:28:27.209Z,34.78
2023-04-01T19:31:03.214Z,28.80
2023-04-01T19:33:40.570Z,28.60
2023-04-01T19:36:43.777Z,25.13
2023-04-01T19:39:40.537Z,28.05
2023-04-01T19:42:30.385Z,35.15
2023-04-01T19:45:20.216Z,28.17
2023-04-01T19:47:56.816Z,28.50
2023-04-01T19:51:18.288Z,30.20
2023-04-01T19:54:26.266Z,33.47
2023-04-01T19:57:26.769Z,31.02
2023-04-01T20:00:17.435Z,32.45
2023-04-01T20:03:14.841Z,41.28
2023-04-01T20:05:44.586Z,30.08
2023-04-01T20:08:33.169Z,34.38
2023-04-01T20:11:03.244Z,36.42
2023-04-01T20:14:10.904Z,37.28
2023-04-01T20:16:57.831Z,37.80
2023-04-01T20:19:32.984Z,34.10
2023-04-01T20:22:02.977Z,35.55
2023-04-01T20:24:47.407Z,36.47
2023-04-01T20:27:14.294Z,33.95
2023-04-01T20:30:18.925Z,37.95
2023-04-01T20:33:00.384Z,34.42
2023-04-01T20:36:07.541Z,32.45
2023-04-01T20:38:53.443Z,37.28
2023-04-01T20:42:14.446Z,32.50
2023-04-01T20:45:13.048Z,38.58
2023-04-01T20:47:54.979Z,39.75
2023-04-01T20:50:51.512Z,39.50
2023-04-01T20:56:17.219Z,38.60
2023-04-01T20:58:52.803Z,35.78
2023-04-01T21:01:28.679Z,38.92
2023-04-01T21:04:24.474Z,40.90
2023-04-01T21:07:10.988Z,45.67
2023-04-01T21:09:54.656Z,44.83
2023-04-01T21:12:31.017Z,34.70
2023-04-01T21:15:36.211Z,38.80
2023-04-01T21:18:44.384Z,45.55
2023-04-01T21:21:21.748Z,43.40
2023-04-01T21:24:09.331Z,45.15
2023-04-01T21:26:36.498Z,38.50
2023-04-01T21:29:26.601Z,51.47
2023-04-01T21:32:17.355Z,43.05
2023-04-01T21:34:57.690Z,44.30
2023-04-01T21:37:45.780Z,42.15
2023-04-01T21:40:33.001Z,45.00
2023-04-01T21:43:19.000Z,47.78
2023-04-01T21:46:21.861Z,48.10
2023-04-01T21:49:03.657Z,41.75
2023-04-01T21:51:49.218Z,40.70
2023-04-01T21:54:34.798Z,40.05
2023-04-01T21:57:38.445Z,43.40
2023-04-01T22:00:22.161Z,38.95
2023-04-01T22:03:16.016Z,39.90
2023-04-01T22:06:18.603Z,43.60
2023-04-01T22:09:24.047Z,44.15
2023-04-01T22:12:08.606Z,47.78
2023-04-01T22:14:45.872Z,50.95
2023-04-01T22:17:24.033Z,55.78
2023-04-01T22:20:05.019Z,45.63
2023-04-01T22:22:59.827Z,52.63
2023-04-01T22:25:37.223Z,48.55
2023-04-01T22:28:07.363Z,43.35
2023-04-01T22:30:52.798Z,44.28
2023-04-01T22:33:48.472Z,39.40
2023-04-01T22:36:29.130Z,39.05
2023-04-01T22:39:41.412Z,39.10
2023-04-01T22:42:32.246Z,39.95
2023-04-01T22:45:21.968Z,40.38
2023-04-01T22:48:11.491Z,40.42
2023-04-01T22:51:04.359Z,38.95
2023-04-01T22:53:57.395Z,37.10
2023-04-01T22:56:52.012Z,36.60
2023-04-01T22:59:40.398Z,34.88
2023-04-01T23:02:38.884Z,40.38
2023-04-01T23:05:12.319Z,30.45
2023-04-01T23:07:54.366Z,34.00
2023-04-01T23:10:38.216Z,32.78
2023-04-01T23:13:06.147Z,35.08
2023-04-01T23:15:37.032Z,33.40
2023-04-01T23:18:07.402Z,33.58
2023-04-01T23:21:02.507Z,33.88
2023-04-01T23:23:48.332Z,27.67
2023-04-01T23:26:39.298Z,30.88
2023-04-01T23:29:14.101Z,25.73
2023-04-01T23:31:43.067Z,24.90
2023-04-01T23:34:12.932Z,29.67
2023-04-01T23:36:53.240Z,21.00
2023-04-01T23:39:38.430Z,24.25
2023-04-01T23:42:26.466Z,21.35
2023-04-01T23:44:59.941Z,23.08
2023-04-01T23:47:38.846Z,24.33
2023-04-01T23:50:15.616Z,22.80
2023-04-01T23:52:49.041Z,23.00
2023-04-01T23:55:16.204Z,24.23
2023-04-01T23:57:43.391Z,23.88
